createdAt,value
2023-02-03T00:00:19.100Z,102519.34
2023-02-03T00:03:04.521Z,102534.75
2023-02-03T00:05:49.537Z,102543.47
2023-02-03T00:08:36.180Z,102555.75
2023-02-03T00:11:21.807Z,102558.72
2023-02-03T00:14:08.002Z,102576.91
2023-02-03T00:16:53.356Z,102564.97
2023-02-03T00:19:38.076Z,102567.44
2023-02-03T00:22:23.119Z,102579.47
2023-02-03T00:25:08.388Z,102583.72
2023-02-03T00:27:53.664Z,102579.28
2023-02-03T00:30:38.655Z,102582.69
2023-02-03T00:33:23.645Z,102599.34
2023-02-03T00:36:09.274Z,102601.03
2023-02-03T00:38:54.609Z,102575.03
2023-02-03T00:41:39.871Z,102585.09
2023-02-03T00:44:25.066Z,102606.94
2023-02-03T00:47:10.589Z,102602.50
2023-02-03T00:49:55.889Z,102572.25
2023-02-03T00:52:41.111Z,102578.91
2023-02-03T00:55:26.510Z,102578.06
2023-02-03T00:58:11.348Z,102575.59
2023-02-03T01:00:59.707Z,102586.91
2023-02-03T01:03:44.667Z,102577.25
2023-02-03T01:06:29.722Z,102573.72
2023-02-03T01:09:14.916Z,102567.72
2023-02-03T01:12:00.002Z,102555.41
2023-02-03T01:14:45.280Z,102562.38
2023-02-03T01:17:30.482Z,102581.38
2023-02-03T01:20:17.042Z,102557.19
2023-02-03T01:23:02.329Z,102551.91
2023-02-03T01:25:47.159Z,102574.22
2023-02-03T01:28:32.639Z,102556.19
2023-02-03T01:31:22.128Z,102576.91
2023-02-03T01:34:11.418Z,102577.00
2023-02-03T01:36:56.471Z,102580.47
2023-02-03T01:39:41.598Z,102576.06
2023-02-03T01:42:28.573Z,102560.66
2023-02-03T01:45:14.008Z,102581.19
2023-02-03T01:48:00.135Z,102583.72
2023-02-03T01:50:44.990Z,102577.53
2023-02-03T01:53:31.659Z,102564.66
2023-02-03T01:56:17.370Z,102581.81
2023-02-03T01:59:02.669Z,102562.66
2023-02-03T02:01:48.571Z,102558.34
2023-02-03T02:04:56.845Z,102570.59
2023-02-03T02:07:43.752Z,102555.13
2023-02-03T02:10:31.293Z,102572.22
2023-02-03T02:13:18.277Z,102570.50
2023-02-03T02:16:22.389Z,102568.72
2023-02-03T02:19:45.492Z,102576.56
2023-02-03T02:22:30.421Z,102565.34
2023-02-03T02:25:49.412Z,102562.59
2023-02-03T02:29:00.615Z,102572.25
2023-02-03T02:32:00.359Z,102556.72
2023-02-03T02:35:03.305Z,102537.78
2023-02-03T02:38:29.350Z,102555.81
2023-02-03T02:41:26.377Z,102534.19
2023-02-03T02:44:23.479Z,102536.75
2023-02-03T02:47:20.057Z,102550.41
2023-02-03T02:50:11.812Z,102551.47
2023-02-03T02:52:58.173Z,102554.91
2023-02-03T02:55:44.606Z,102557.66
2023-02-03T02:58:32.019Z,102555.81
2023-02-03T03:01:17.924Z,102560.03
2023-02-03T03:04:06.048Z,102547.97
2023-02-03T03:06:58.384Z,102555.03
2023-02-03T03:09:49.301Z,102535.19
2023-02-03T03:12:43.153Z,102564.56
2023-02-03T03:15:31.775Z,102577.63
2023-02-03T03:18:36.089Z,102564.56
2023-02-03T03:21:27.451Z,102572.41
2023-02-03T03:24:18.523Z,102575.03
2023-02-03T03:27:19.076Z,102579.25
2023-02-03T03:30:11.649Z,102561.31
2023-02-03T03:32:58.501Z,102567.28
2023-02-03T03:35:58.986Z,102566.66
2023-02-03T03:38:49.999Z,102581.97
2023-02-03T03:41:49.949Z,102574.06
2023-02-03T03:44:42.413Z,102560.25
2023-02-03T03:47:56.377Z,102564.63
2023-02-03T03:50:47.385Z,102542.31
2023-02-03T03:53:35.363Z,102556.94
2023-02-03T03:56:28.153Z,102552.03
2023-02-03T03:59:16.404Z,102579.63
2023-02-03T04:02:04.643Z,102587.50
2023-02-03T04:04:51.062Z,102589.28
2023-02-03T04:07:44.390Z,102590.13
2023-02-03T04:10:38.963Z,102571.31
2023-02-03T04:13:24.317Z,102570.31
2023-02-03T04:16:09.570Z,102567.00
2023-02-03T04:18:54.779Z,102574.06
2023-02-03T04:21:40.014Z,102592.88
2023-02-03T04:24:25.029Z,102600.69
2023-02-03T04:27:10.953Z,102602.50
2023-02-03T04:29:55.653Z,102597.25
2023-02-03T04:32:41.264Z,102587.66
2023-02-03T04:35:26.716Z,102592.03
2023-02-03T04:38:11.823Z,102598.19
2023-02-03T04:40:56.755Z,102601.75
2023-02-03T04:43:41.792Z,102585.31
2023-02-03T04:46:26.872Z,102589.72
2023-02-03T04:49:11.828Z,102591.63
2023-02-03T04:51:56.807Z,102589.75
2023-02-03T04:54:41.954Z,102590.59
2023-02-03T04:57:27.292Z,102598.53
2023-02-03T05:00:13.376Z,102593.31
2023-02-03T05:02:58.611Z,102590.00
2023-02-03T05:05:44.201Z,102606.47
2023-02-03T05:08:30.525Z,102607.41
2023-02-03T05:11:15.709Z,102625.38
2023-02-03T05:14:00.819Z,102616.84
2023-02-03T05:16:46.564Z,102624.53
2023-02-03T05:19:31.703Z,102622.91
2023-02-03T05:22:16.739Z,102620.28
2023-02-03T05:25:02.847Z,102638.50
2023-02-03T05:27:48.243Z,102642.84
2023-02-03T05:30:33.528Z,102662.84
2023-02-03T05:33:19.036Z,102667.16
2023-02-03T05:36:04.532Z,102655.84
2023-02-03T05:38:49.751Z,102641.88
2023-02-03T05:41:53.076Z,102661.84
2023-02-03T05:44:37.976Z,102643.59
2023-02-03T05:47:22.903Z,102640.97
2023-02-03T05:50:08.361Z,102650.63
2023-02-03T05:52:53.368Z,102658.56
2023-02-03T05:55:38.370Z,102656.78
2023-02-03T05:58:23.725Z,102659.47
2023-02-03T06:01:08.964Z,102655.09
2023-02-03T06:03:53.925Z,102658.59
2023-02-03T06:06:39.257Z,102669.06
2023-02-03T06:09:24.189Z,102654.28
2023-02-03T06:12:09.146Z,102662.03
2023-02-03T06:14:54.324Z,102653.22
2023-02-03T06:17:39.758Z,102643.72
2023-02-03T06:20:24.938Z,102637.78
2023-02-03T06:23:09.780Z,102633.50
2023-02-03T06:25:55.486Z,102607.03
2023-02-03T06:28:40.822Z,102632.75
2023-02-03T06:31:26.378Z,102619.88
2023-02-03T06:34:11.352Z,102607.06
2023-02-03T06:36:56.575Z,102619.06
2023-02-03T06:39:41.618Z,102620.09
2023-02-03T06:42:26.826Z,102625.38
2023-02-03T06:45:12.079Z,102640.16
2023-02-03T06:47:57.009Z,102637.56
2023-02-03T06:50:43.175Z,102639.38
2023-02-03T06:53:28.487Z,102660.19
2023-02-03T06:56:13.358Z,102658.47
2023-02-03T06:58:58.933Z,102663.72
2023-02-03T07:01:44.109Z,102665.38
2023-02-03T07:04:30.163Z,102658.63
2023-02-03T07:07:15.026Z,102656.94
2023-02-03T07:10:02.829Z,102649.44
2023-02-03T07:12:48.023Z,102665.81
2023-02-03T07:15:33.710Z,102661.72
2023-02-03T07:18:45.240Z,102659.13
2023-02-03T07:21:26.635Z,102679.06
2023-02-03T07:24:11.870Z,102665.28
2023-02-03T07:26:56.744Z,102683.47
2023-02-03T07:29:42.086Z,102682.66
2023-02-03T07:32:27.055Z,102687.03
2023-02-03T07:35:12.339Z,102680.84
2023-02-03T07:37:57.207Z,102689.53
2023-02-03T07:40:42.178Z,102694.84
2023-02-03T07:43:27.144Z,102676.06
2023-02-03T07:46:12.564Z,102709.03
2023-02-03T07:48:57.872Z,102711.53
2023-02-03T07:51:45.313Z,102699.53
2023-02-03T07:54:30.500Z,102728.06
2023-02-03T07:57:15.654Z,102715.09
2023-02-03T08:00:00.505Z,102721.13
2023-02-03T08:02:47.000Z,102719.50
2023-02-03T08:05:32.333Z,102700.38
2023-02-03T08:08:17.618Z,102684.00
2023-02-03T08:11:03.082Z,102698.69
2023-02-03T08:13:48.265Z,102702.13
2023-02-03T08:16:33.608Z,102706.34
2023-02-03T08:19:18.659Z,102703.66
2023-02-03T08:22:03.618Z,102696.66
2023-02-03T08:24:49.290Z,102706.22
2023-02-03T08:27:34.787Z,102703.56
2023-02-03T08:30:19.755Z,102706.16
2023-02-03T08:33:05.036Z,102703.53
2023-02-03T08:35:50.866Z,102707.94
2023-02-03T08:38:36.473Z,102716.44
2023-02-03T08:41:21.733Z,102723.31
2023-02-03T08:44:07.104Z,102725.84
2023-02-03T08:46:53.513Z,102723.22
2023-02-03T08:49:41.867Z,102729.19
2023-02-03T08:52:26.930Z,102735.31
2023-02-03T08:55:12.448Z,102732.00
2023-02-03T08:57:57.676Z,102752.63
2023-02-03T09:00:43.310Z,102759.53
2023-02-03T09:03:28.315Z,102752.50
2023-02-03T09:06:16.520Z,102733.34
2023-02-03T09:09:02.368Z,102737.50
2023-02-03T09:11:48.035Z,102740.84
2023-02-03T09:14:34.057Z,102743.38
2023-02-03T09:17:19.497Z,102749.22
2023-02-03T09:20:05.721Z,102761.22
2023-02-03T09:22:50.903Z,102754.22
2023-02-03T09:25:36.590Z,102757.50
2023-02-03T09:28:21.915Z,102769.50
2023-02-03T09:31:09.975Z,102765.13
2023-02-03T09:33:55.034Z,102758.94
2023-02-03T09:36:41.917Z,102754.56
2023-02-03T09:39:27.870Z,102758.75
2023-02-03T09:42:31.971Z,102754.13
2023-02-03T09:45:29.286Z,102752.31
2023-02-03T09:48:32.495Z,102763.59
2023-02-03T09:51:25.259Z,102777.50
2023-02-03T09:54:47.476Z,102787.75
2023-02-03T09:57:43.953Z,102794.31
2023-02-03T10:00:35.228Z,102791.81
2023-02-03T10:03:32.540Z,102803.72
2023-02-03T10:06:36.456Z,102806.03
2023-02-03T10:09:39.776Z,102828.38
2023-02-03T10:12:49.600Z,102825.34
2023-02-03T10:15:52.735Z,102809.69
2023-02-03T10:18:47.092Z,102824.25
2023-02-03T10:21:55.341Z,102839.97
2023-02-03T10:24:46.604Z,102843.28
2023-02-03T10:27:33.467Z,102843.03
2023-02-03T10:30:21.891Z,102836.19
2023-02-03T10:33:13.015Z,102850.66
2023-02-03T10:36:15.227Z,102847.91
2023-02-03T10:39:41.734Z,102858.19
2023-02-03T10:42:50.014Z,102864.75
2023-02-03T10:45:38.437Z,102869.59
2023-02-03T10:48:24.970Z,102876.50
2023-02-03T10:51:23.655Z,102886.72
2023-02-03T10:54:35.119Z,102875.88
2023-02-03T10:57:20.175Z,102875.66
2023-02-03T11:00:28.831Z,102873.72
2023-02-03T11:03:14.196Z,102871.00
2023-02-03T11:06:06.957Z,102864.13
2023-02-03T11:08:52.629Z,102870.91
2023-02-03T11:11:41.583Z,102854.47
2023-02-03T11:14:26.813Z,102873.88
2023-02-03T11:17:19.761Z,102880.53
2023-02-03T11:20:15.822Z,102866.72
2023-02-03T11:23:02.857Z,102863.63
2023-02-03T11:25:48.473Z,102863.09
2023-02-03T11:28:33.472Z,102865.41
2023-02-03T11:31:23.591Z,102866.00
2023-02-03T11:34:15.942Z,102860.84
2023-02-03T11:37:33.354Z,102856.59
2023-02-03T11:40:21.356Z,102867.31
2023-02-03T11:43:16.679Z,102869.50
2023-02-03T11:46:05.118Z,102864.44
2023-02-03T11:49:00.113Z,102861.47
2023-02-03T11:51:57.606Z,102849.31
2023-02-03T11:54:51.768Z,102867.53
2023-02-03T11:57:52.230Z,102865.09
2023-02-03T12:00:49.237Z,102863.25
2023-02-03T12:03:50.694Z,102857.88
2023-02-03T12:06:58.463Z,102863.66
2023-02-03T12:09:52.428Z,102866.94
2023-02-03T12:12:55.971Z,102855.31
2023-02-03T12:16:03.172Z,102860.28
2023-02-03T12:19:00.424Z,102872.47
2023-02-03T12:21:56.590Z,102870.09
2023-02-03T12:24:55.476Z,102865.50
2023-02-03T12:28:40.022Z,102867.81
2023-02-03T12:31:42.678Z,102840.66
2023-02-03T12:34:39.252Z,102858.63
2023-02-03T12:37:49.811Z,102862.28
2023-02-03T12:40:49.433Z,102860.59
2023-02-03T12:43:43.421Z,102866.41
2023-02-03T12:46:45.075Z,102854.84
2023-02-03T12:49:46.957Z,102844.56
2023-02-03T12:52:42.216Z,102842.56
2023-02-03T12:55:38.849Z,102840.66
2023-02-03T12:58:34.747Z,102839.66
2023-02-03T13:01:28.108Z,102842.00
2023-02-03T13:04:41.662Z,102819.28
2023-02-03T13:07:33.527Z,102833.25
2023-02-03T13:10:27.202Z,102837.22
2023-02-03T13:13:16.435Z,102836.47
2023-02-03T13:16:07.828Z,102836.19
2023-02-03T13:19:01.889Z,102828.06
2023-02-03T13:21:50.758Z,102842.53
2023-02-03T13:24:36.147Z,102848.94
2023-02-03T13:27:46.089Z,102851.69
2023-02-03T13:30:38.644Z,102846.28
2023-02-03T13:33:31.829Z,102841.69
2023-02-03T13:36:25.779Z,102842.75
2023-02-03T13:39:36.590Z,102845.53
2023-02-03T13:42:30.236Z,102848.03
2023-02-03T13:45:37.255Z,102838.53
2023-02-03T13:48:33.660Z,102854.69
2023-02-03T13:51:25.571Z,102861.63
2023-02-03T13:54:21.031Z,102859.13
2023-02-03T13:57:21.265Z,102852.44
2023-02-03T14:00:28.216Z,102852.88
2023-02-03T14:03:25.574Z,102837.25
2023-02-03T14:06:36.181Z,102853.53
2023-02-03T14:09:30.512Z,102853.16
2023-02-03T14:12:15.231Z,102858.00
2023-02-03T14:15:13.063Z,102843.34
2023-02-03T14:18:01.524Z,102855.53
2023-02-03T14:20:51.124Z,102860.25
2023-02-03T14:23:40.061Z,102865.16
2023-02-03T14:26:52.980Z,102861.75
2023-02-03T14:29:37.908Z,102860.97
2023-02-03T14:32:23.019Z,102867.56
2023-02-03T14:35:17.773Z,102864.28
2023-02-03T14:38:06.806Z,102875.91
2023-02-03T14:40:59.497Z,102866.56
2023-02-03T14:44:16.268Z,102860.34
2023-02-03T14:47:01.316Z,102863.31
2023-02-03T14:50:17.170Z,102850.59
2023-02-03T14:53:23.891Z,102850.09
2023-02-03T14:57:08.119Z,102879.50
2023-02-03T14:59:56.403Z,102869.53
2023-02-03T15:03:10.108Z,102865.84
2023-02-03T15:05:58.997Z,102860.50
2023-02-03T15:08:48.536Z,102855.38
2023-02-03T15:11:33.950Z,102855.53
2023-02-03T15:14:22.116Z,102863.75
2023-02-03T15:17:23.158Z,102867.38
2023-02-03T15:20:25.945Z,102869.38
2023-02-03T15:23:26.627Z,102864.88
2023-02-03T15:26:14.151Z,102872.56
2023-02-03T15:29:02.316Z,102872.56
2023-02-03T15:31:51.243Z,102864.75
2023-02-03T15:34:41.662Z,102872.69
2023-02-03T15:37:35.641Z,102867.84
2023-02-03T15:40:23.473Z,102863.56
2023-02-03T15:43:14.679Z,102874.03
2023-02-03T15:46:25.844Z,102880.50
2023-02-03T15:49:18.144Z,102879.31
2023-02-03T15:52:07.941Z,102887.47
2023-02-03T15:54:55.405Z,102896.59
2023-02-03T15:57:40.793Z,102898.91
2023-02-03T16:00:38.574Z,102884.41
2023-02-03T16:03:29.768Z,102910.81
2023-02-03T16:06:25.429Z,102918.38
2023-02-03T16:09:27.369Z,102898.81
2023-02-03T16:12:22.401Z,102922.56
2023-02-03T16:15:23.666Z,102930.53
2023-02-03T16:18:17.758Z,102927.19
2023-02-03T16:21:06.997Z,102929.53
2023-02-03T16:23:52.052Z,102918.09
2023-02-03T16:26:38.455Z,102922.31
2023-02-03T16:29:47.617Z,102921.47
2023-02-03T16:32:51.350Z,102938.53
2023-02-03T16:35:55.385Z,102939.69
2023-02-03T16:39:06.939Z,102942.63
2023-02-03T16:42:17.070Z,102952.38
2023-02-03T16:45:21.355Z,102945.88
2023-02-03T16:48:25.772Z,102949.00
2023-02-03T16:51:15.832Z,102941.53
2023-02-03T16:54:01.176Z,102958.09
2023-02-03T16:56:47.400Z,102966.19
2023-02-03T16:59:32.714Z,102963.88
2023-02-03T17:02:18.263Z,102958.75
2023-02-03T17:05:03.623Z,102956.38
2023-02-03T17:07:49.172Z,102972.91
2023-02-03T17:10:38.989Z,102969.81
2023-02-03T17:13:24.590Z,102967.22
2023-02-03T17:16:17.053Z,102976.94
2023-02-03T17:19:02.289Z,102967.59
2023-02-03T17:21:47.968Z,102972.34
2023-02-03T17:24:32.818Z,102988.66
2023-02-03T17:27:17.920Z,103001.06
2023-02-03T17:30:04.214Z,102989.16
2023-02-03T17:32:49.418Z,102998.69
2023-02-03T17:35:34.353Z,103004.16
2023-02-03T17:38:19.577Z,102997.31
2023-02-03T17:53:30.697Z,103025.06
2023-02-03T17:56:19.620Z,103025.13
2023-02-03T17:59:05.701Z,103022.75
2023-02-03T18:01:50.590Z,103025.31
2023-02-03T18:04:36.222Z,103023.03
2023-02-03T18:07:21.545Z,103039.50
2023-02-03T18:10:06.962Z,103034.44
2023-02-03T18:12:52.301Z,103030.25
2023-02-03T18:15:38.503Z,103028.59
2023-02-03T18:18:25.772Z,103027.75
2023-02-03T18:21:13.557Z,103033.91
2023-02-03T18:24:01.602Z,103033.94
2023-02-03T18:26:49.768Z,103008.97
2023-02-03T18:29:34.590Z,103028.13
2023-02-03T18:32:20.015Z,103027.16
2023-02-03T18:35:07.590Z,103022.69
2023-02-03T18:37:52.460Z,103035.78
2023-02-03T18:40:38.318Z,103043.72
2023-02-03T18:43:23.593Z,103050.81
2023-02-03T18:46:11.644Z,103064.88
2023-02-03T18:48:57.179Z,103066.66
2023-02-03T18:51:42.131Z,103071.16
2023-02-03T18:54:29.503Z,103071.16
2023-02-03T18:57:15.685Z,103079.94
2023-02-03T19:00:00.791Z,103078.28
2023-02-03T19:02:49.529Z,103090.56
2023-02-03T19:05:34.385Z,103078.44
2023-02-03T19:08:19.383Z,103067.34
2023-02-03T19:11:04.803Z,103069.25
2023-02-03T19:13:50.233Z,103079.66
2023-02-03T19:16:35.254Z,103085.06
2023-02-03T19:19:20.926Z,103070.53
2023-02-03T19:22:05.955Z,103098.25
2023-02-03T19:24:50.900Z,103090.50
2023-02-03T19:27:36.177Z,103094.88
2023-02-03T19:30:22.013Z,103089.84
2023-02-03T19:33:07.013Z,103101.25
2023-02-03T19:35:52.799Z,103108.34
2023-02-03T19:38:38.345Z,103116.22
2023-02-03T19:41:25.679Z,103109.25
2023-02-03T19:44:10.735Z,103111.00
2023-02-03T19:46:56.000Z,103117.06
2023-02-03T19:49:41.346Z,103123.03
2023-02-03T19:52:26.306Z,103120.28
2023-02-03T19:55:12.210Z,103099.53
2023-02-03T19:57:59.859Z,103125.41
2023-02-03T20:00:44.961Z,103130.63
2023-02-03T20:03:30.312Z,103126.34
2023-02-03T20:06:16.181Z,103129.81
2023-02-03T20:09:01.352Z,103132.34
2023-02-03T20:11:46.251Z,103122.81
2023-02-03T20:14:33.823Z,103128.88
2023-02-03T20:17:18.927Z,103120.22
2023-02-03T20:20:04.878Z,103105.59
2023-02-03T20:22:50.197Z,103122.78
2023-02-03T20:25:35.521Z,103122.72
2023-02-03T20:28:23.094Z,103130.50
2023-02-03T20:31:08.499Z,103133.97
2023-02-03T20:33:53.949Z,103130.41
2023-02-03T20:36:39.171Z,103128.53
2023-02-03T20:39:24.388Z,103123.28
2023-02-03T20:42:15.222Z,103124.13
2023-02-03T20:45:00.202Z,103113.94
2023-02-03T20:47:45.616Z,103124.22
2023-02-03T20:50:41.563Z,103126.00
2023-02-03T20:53:27.639Z,103136.53
2023-02-03T20:56:18.258Z,103124.59
2023-02-03T20:59:03.564Z,103122.84
2023-02-03T21:01:49.120Z,103129.81
2023-02-03T21:04:53.211Z,103129.97
2023-02-03T21:07:39.242Z,103120.53
2023-02-03T21:10:25.094Z,103123.31
2023-02-03T21:13:27.877Z,103124.41
2023-02-03T21:16:27.586Z,103138.44
2023-02-03T21:19:21.835Z,103147.25
2023-02-03T21:22:30.197Z,103149.19
2023-02-03T21:25:27.098Z,103154.50
2023-02-03T21:28:24.637Z,103139.09
2023-02-03T21:31:23.261Z,103157.28
2023-02-03T21:34:37.815Z,103153.78
2023-02-03T21:37:23.004Z,103172.06
2023-02-03T21:40:29.209Z,103165.28
2023-02-03T21:43:17.901Z,103152.44
2023-02-03T21:46:03.059Z,103176.75
2023-02-03T21:48:50.826Z,103173.34
2023-02-03T21:51:39.498Z,103173.50
2023-02-03T21:54:33.631Z,103164.13
2023-02-03T21:57:20.609Z,103168.31
2023-02-03T22:00:34.601Z,103171.75
2023-02-03T22:03:27.703Z,103169.13
2023-02-03T22:06:18.728Z,103172.88
2023-02-03T22:09:04.014Z,103177.38
2023-02-03T22:11:49.246Z,103178.34
2023-02-03T22:14:34.406Z,103182.75
2023-02-03T22:17:19.266Z,103187.91
2023-02-03T22:20:04.325Z,103186.19
2023-02-03T22:22:49.324Z,103185.34
2023-02-03T22:25:34.453Z,103191.50
2023-02-03T22:28:19.556Z,103200.31
2023-02-03T22:31:07.554Z,103209.03
2023-02-03T22:33:52.555Z,103196.88
2023-02-03T22:36:37.803Z,103202.97
2023-02-03T22:39:22.936Z,103198.59
2023-02-03T22:42:07.994Z,103195.22
2023-02-03T22:44:53.189Z,103219.41
2023-02-03T22:47:38.428Z,103208.28
2023-02-03T22:50:34.779Z,103225.56
2023-02-03T22:53:21.058Z,103226.41
2023-02-03T22:56:06.026Z,103227.25
2023-02-03T22:58:51.346Z,103202.31
2023-02-03T23:01:36.349Z,103236.97
2023-02-03T23:04:22.817Z,103240.44
2023-02-03T23:07:07.784Z,103244.78
2023-02-03T23:09:53.108Z,103229.19
2023-02-03T23:12:38.096Z,103243.88
2023-02-03T23:15:23.466Z,103248.19
2023-02-03T23:18:08.494Z,103214.50
2023-02-03T23:20:53.850Z,103228.25
2023-02-03T23:23:39.002Z,103247.22
2023-02-03T23:26:23.945Z,103250.69
2023-02-03T23:29:09.134Z,103248.94
2023-02-03T23:31:54.519Z,103240.31
2023-02-03T23:34:57.993Z,103254.09
2023-02-03T23:37:43.280Z,103254.88
2023-02-03T23:40:29.211Z,103253.16
2023-02-03T23:43:15.626Z,103237.75
2023-02-03T23:46:00.827Z,103253.22
2023-02-03T23:48:46.074Z,103267.06
2023-02-03T23:51:31.373Z,103263.56
2023-02-03T23:54:16.463Z,103248.00
2023-02-03T23:57:01.315Z,103254.94
2023-02-03T23:59:46.570Z,103269.56
